Time;durP1;ratioP1;P1;durP2;ratioP2;P2;SDS_P1;SDS_P2;PMS_P1;PMS_P2;Temp;Humidity;BMP_temperature;BMP_pressure;BME280_temperature;BME280_humidity;BME280_pressure;Samples;Min_cycle;Max_cycle;Signal;HPM_P1;HPM_P2
2022/02/02 00:00:15;;;;;;;100.50;36.97;;;;;;;3.68;66.46;94115.22;4983533;28;20037;-78
2022/02/02 00:12:59;;;;;;;74.97;29.23;;;;;;;3.64;66.54;94110.72;4972358;28;20137;-78
2022/02/02 00:18:37;;;;;;;42.65;19.13;;;;;;;3.63;66.63;94111.72;4954749;28;20035;-78
2022/02/02 00:21:02;;;;;;;69.15;28.45;;;;;;;3.64;66.78;94108.94;4957157;28;20039;-78
2022/02/02 00:23:34;;;;;;;98.22;35.20;;;;;;;3.59;66.16;94103.63;4969720;28;20370;-78
2022/02/02 00:26:06;;;;;;;64.80;26.42;;;;;;;3.60;66.28;94103.41;4981629;23;20519;-78
2022/02/02 00:28:36;;;;;;;85.95;36.97;;;;;;;3.59;66.89;94099.28;4988580;28;20513;-78
2022/02/02 00:31:06;;;;;;;42.30;20.45;;;;;;;3.64;66.01;94093.50;4951398;29;20034;-78
2022/02/02 00:33:38;;;;;;;50.20;23.40;;;;;;;3.64;66.47;94087.56;4950740;29;20042;-78
2022/02/02 00:36:09;;;;;;;61.50;27.58;;;;;;;3.57;66.59;94092.72;4951178;29;20111;-78
2022/02/02 00:38:34;;;;;;;43.88;23.55;;;;;;;3.66;66.13;94090.72;4928468;28;20054;-78
2022/02/02 00:41:00;;;;;;;24.50;16.15;;;;;;;3.61;66.45;94084.44;4950862;29;20105;-78
2022/02/02 00:43:25;;;;;;;21.33;13.07;;;;;;;3.64;66.35;94097.84;4949508;28;20599;-78
2022/02/02 00:45:50;;;;;;;20.52;14.35;;;;;;;3.65;66.08;94107.16;4971579;28;20478;-77
2022/02/02 00:48:17;;;;;;;22.80;14.77;;;;;;;3.67;65.87;94107.72;4973878;28;20038;-77
2022/02/02 00:50:44;;;;;;;48.90;23.20;;;;;;;3.62;66.05;94103.22;4940757;28;20038;-78
2022/02/02 00:53:10;;;;;;;39.50;18.60;;;;;;;3.66;65.59;94098.44;4955893;28;20034;-78
2022/02/02 00:55:37;;;;;;;39.17;20.08;;;;;;;3.56;66.06;94093.72;4941010;28;20472;-78
2022/02/02 00:58:03;;;;;;;41.20;20.42;;;;;;;3.56;65.37;94104.81;4974791;28;20022;-78
2022/02/02 01:00:29;;;;;;;35.60;17.95;;;;;;;3.57;65.65;94087.59;4938107;29;20039;-78
2022/02/02 01:02:54;;;;;;;29.25;17.70;;;;;;;3.55;66.16;94085.22;4953988;28;20038;-78
2022/02/02 01:28:29;;;;;;;26.95;16.38;;;;;;;3.31;66.53;94047.41;4947175;28;20037;-77
2022/02/02 01:30:55;;;;;;;27.05;16.10;;;;;;;3.28;66.02;94032.41;4965424;28;20047;-77
2022/02/02 01:33:20;;;;;;;19.40;13.60;;;;;;;3.33;65.58;94035.16;4966341;28;20544;-77
2022/02/02 01:35:46;;;;;;;26.98;16.08;;;;;;;3.26;66.16;94024.13;4930975;28;20042;-78
2022/02/02 01:38:12;;;;;;;24.40;14.50;;;;;;;3.25;66.59;94022.53;4942870;29;20031;-77
2022/02/02 01:40:43;;;;;;;28.25;17.50;;;;;;;3.32;66.31;94018.16;4950356;28;20039;-77
2022/02/02 01:43:23;;;;;;;24.85;14.93;;;;;;;3.31;65.58;94014.00;4942883;29;20039;-77
2022/02/02 01:45:53;;;;;;;24.92;17.08;;;;;;;3.34;65.72;94015.38;4952390;28;20419;-77
2022/02/02 01:55:46;;;;;;;24.55;15.18;;;;;;;3.34;65.58;94002.53;4966140;28;20049;-77
2022/02/02 01:58:37;;;;;;;19.90;13.85;;;;;;;3.36;65.31;94003.91;4969785;28;20027;-77
2022/02/02 02:01:03;;;;;;;18.77;13.15;;;;;;;3.34;65.65;93995.59;4960038;28;20475;-78
2022/02/02 02:03:29;;;;;;;22.15;13.13;;;;;;;3.30;65.90;94004.72;4950691;29;20035;-77
2022/02/02 02:05:54;;;;;;;21.65;14.65;;;;;;;3.33;65.42;93994.03;4935425;29;20126;-77
2022/02/02 02:08:20;;;;;;;20.13;13.10;;;;;;;3.29;65.51;93987.75;4942790;29;20039;-77
2022/02/02 02:10:46;;;;;;;21.83;13.85;;;;;;;3.36;65.09;93977.41;4957573;28;20212;-77
2022/02/02 02:13:32;;;;;;;19.73;13.27;;;;;;;3.44;65.12;93977.19;4957790;28;20045;-77
2022/02/02 02:15:57;;;;;;;21.25;14.43;;;;;;;3.35;64.90;93961.22;4959874;28;20459;-77
2022/02/02 02:18:23;;;;;;;24.83;15.40;;;;;;;3.38;64.80;93975.41;4959966;28;20042;-77
2022/02/02 02:20:48;;;;;;;28.67;17.58;;;;;;;3.37;64.57;93979.78;4959787;28;20042;-77
2022/02/02 02:25:45;;;;;;;37.58;20.08;;;;;;;3.36;64.81;93970.50;4982887;23;20182;-77
2022/02/02 02:57:20;;;;;;;27.65;16.95;;;;;;;3.28;65.35;93981.81;4959716;28;20558;-77
2022/02/02 03:00:04;;;;;;;29.65;17.83;;;;;;;3.27;65.49;93979.47;4960146;28;20035;-76
2022/02/02 03:30:07;;;;;;;26.05;16.48;;;;;;;2.95;65.89;93966.59;4965953;28;20093;-77
2022/02/02 03:49:19;;;;;;;26.50;16.70;;;;;;;3.05;65.20;93955.06;4961190;28;20077;-77
2022/02/02 03:52:03;;;;;;;28.15;18.08;;;;;;;2.98;64.41;93949.97;4966345;28;20042;-77
2022/02/02 03:59:48;;;;;;;28.42;17.08;;;;;;;3.04;63.92;93966.34;4947896;28;20038;-77
2022/02/02 04:08:09;;;;;;;32.17;19.48;;;;;;;3.02;63.93;93961.41;4961688;28;20038;-77
2022/02/02 04:10:34;;;;;;;28.00;17.08;;;;;;;2.97;64.93;93959.47;4961072;28;20412;-77
2022/02/02 05:12:41;;;;;;;37.72;23.33;;;;;;;2.91;63.82;93991.06;4981493;28;20046;-78
2022/02/02 05:26:55;;;;;;;39.50;23.20;;;;;;;2.81;63.85;93990.75;4990344;28;20046;-77
2022/02/02 05:50:07;;;;;;;41.58;24.50;;;;;;;2.89;64.60;94013.59;4971575;28;20107;-77
2022/02/02 05:52:33;;;;;;;41.45;23.95;;;;;;;2.88;65.15;94013.81;4984856;28;20038;-78
2022/02/02 05:54:58;;;;;;;39.15;22.08;;;;;;;2.89;65.57;94015.38;4966574;28;20046;-77
2022/02/02 05:57:24;;;;;;;35.45;21.08;;;;;;;2.87;65.56;94009.66;4982930;28;20022;-77
2022/02/02 05:59:49;;;;;;;39.78;23.65;;;;;;;2.94;64.65;94010.44;4966870;28;20035;-78
2022/02/02 06:02:14;;;;;;;38.67;22.95;;;;;;;2.85;65.34;94014.22;4950946;28;20041;-77
2022/02/02 06:04:43;;;;;;;39.80;23.05;;;;;;;2.84;64.73;94018.56;4950572;28;20034;-77
2022/02/02 06:07:09;;;;;;;55.03;31.20;;;;;;;2.92;64.97;94018.34;4992747;28;20030;-77
2022/02/02 06:09:37;;;;;;;63.00;34.83;;;;;;;2.91;65.08;94018.53;4993169;28;20052;-77
2022/02/02 06:12:04;;;;;;;56.78;30.90;;;;;;;2.94;65.03;94026.66;4968992;28;20030;-77
2022/02/02 06:14:30;;;;;;;44.25;25.95;;;;;;;2.96;64.76;94029.00;4984032;28;20113;-77
2022/02/02 06:17:06;;;;;;;56.88;31.02;;;;;;;2.93;64.43;94035.34;4983144;28;20034;-77
2022/02/02 06:19:31;;;;;;;50.67;29.73;;;;;;;2.99;65.51;94038.88;4969154;28;20121;-77
2022/02/02 06:22:06;;;;;;;80.72;41.30;;;;;;;2.95;64.66;94033.34;4980741;28;20041;-77
2022/02/02 06:24:32;;;;;;;56.47;32.58;;;;;;;2.88;65.38;94047.97;4990474;28;20031;-77
2022/02/02 06:27:09;;;;;;;60.78;31.80;;;;;;;2.94;65.57;94054.09;4981608;28;20030;-78
2022/02/02 06:29:36;;;;;;;57.85;32.53;;;;;;;2.95;65.79;94048.75;4984078;28;20034;-78
2022/02/02 06:32:01;;;;;;;52.42;31.02;;;;;;;2.98;64.72;94047.56;4983927;28;20062;-77
2022/02/02 06:34:27;;;;;;;53.13;30.15;;;;;;;3.03;64.90;94054.66;4966582;28;20057;-77
2022/02/02 06:36:53;;;;;;;53.17;31.92;;;;;;;3.06;64.98;94056.81;4966910;28;20030;-77
2022/02/02 06:39:18;;;;;;;49.58;29.88;;;;;;;3.00;65.96;94061.78;4966499;28;20060;-77
2022/02/02 06:41:44;;;;;;;45.78;27.77;;;;;;;3.03;65.54;94054.66;4964727;28;20038;-79
2022/02/02 06:44:09;;;;;;;63.60;36.92;;;;;;;3.14;64.47;94054.03;4981980;28;20037;-77
2022/02/02 06:46:38;;;;;;;70.32;38.00;;;;;;;3.07;65.03;94066.09;4992771;23;20062;-78
2022/02/02 06:49:03;;;;;;;87.70;44.22;;;;;;;3.06;65.95;94059.38;4983722;28;20038;-77
2022/02/02 06:51:47;;;;;;;76.75;41.85;;;;;;;3.04;64.95;94071.63;4982051;28;20042;-77
2022/02/02 06:54:30;;;;;;;79.25;40.35;;;;;;;3.10;64.14;94050.28;4982696;28;20035;-78
2022/02/02 06:57:08;;;;;;;83.72;45.78;;;;;;;3.13;65.20;94055.81;4952255;28;20048;-78
2022/02/02 07:07:47;;;;;;;50.42;29.63;;;;;;;3.16;65.33;94065.66;4962327;28;20042;-77
2022/02/02 07:10:21;;;;;;;52.30;29.48;;;;;;;3.21;63.60;94072.75;4965584;28;20129;-77
2022/02/02 07:15:35;;;;;;;48.13;27.42;;;;;;;3.28;64.19;94082.03;4949564;28;20129;-77
2022/02/02 07:29:16;;;;;;;59.15;28.90;;;;;;;3.37;62.82;94072.28;4965952;28;20085;-77
2022/02/02 07:35:09;;;;;;;51.30;27.35;;;;;;;3.52;63.21;94070.22;4964578;28;20093;-76
2022/02/02 07:37:34;;;;;;;54.25;26.75;;;;;;;3.64;61.90;94067.00;4975736;28;20035;-76
2022/02/02 07:40:02;;;;;;;60.58;26.95;;;;;;;3.73;61.01;94068.31;4948192;28;20042;-76
2022/02/02 07:42:28;;;;;;;47.38;24.38;;;;;;;3.81;60.63;94068.09;4965364;28;20681;-78
2022/02/02 07:45:03;;;;;;;50.17;27.52;;;;;;;3.86;60.32;94068.25;4965784;28;20085;-80
2022/02/02 07:47:29;;;;;;;38.85;22.77;;;;;;;3.95;60.27;94071.34;4958341;28;20043;-77
2022/02/02 07:49:56;;;;;;;59.35;31.17;;;;;;;4.01;61.39;94071.31;4954956;28;20092;-79
2022/02/02 07:52:22;;;;;;;61.85;30.48;;;;;;;4.14;59.23;94062.69;4963046;28;20038;-78
2022/02/02 07:54:50;;;;;;;51.80;29.13;;;;;;;4.22;58.28;94065.78;4947000;28;20113;-77
2022/02/02 07:57:19;;;;;;;41.72;22.77;;;;;;;4.25;57.44;94061.25;4946176;28;20494;-77
2022/02/02 08:05:23;;;;;;;42.60;24.30;;;;;;;4.47;55.56;94057.28;4979761;28;20057;-77
2022/02/02 08:08:10;;;;;;;50.38;23.27;;;;;;;4.57;54.94;94055.00;4962882;28;20034;-77
2022/02/02 08:10:36;;;;;;;32.63;17.88;;;;;;;4.67;55.11;94060.44;4980287;23;20042;-77
2022/02/02 08:13:09;;;;;;;47.70;24.65;;;;;;;4.82;54.33;94050.56;4991591;28;20034;-77
2022/02/02 08:15:35;;;;;;;62.80;27.15;;;;;;;5.04;53.06;94047.56;4947535;28;20045;-77
2022/02/02 08:18:01;;;;;;;49.90;26.05;;;;;;;5.21;53.77;94040.84;4967165;28;20035;-76
2022/02/02 08:20:26;;;;;;;61.70;25.08;;;;;;;5.38;53.32;94044.38;4970438;28;20506;-77
2022/02/02 08:22:52;;;;;;;45.00;24.10;;;;;;;5.66;51.85;94045.56;4988353;28;20038;-77
2022/02/02 08:25:26;;;;;;;37.97;20.55;;;;;;;5.77;52.03;94051.78;4963760;28;20034;-77
2022/02/02 08:27:54;;;;;;;37.90;16.92;;;;;;;5.98;50.17;94057.25;4962064;28;20031;-77
2022/02/02 08:30:21;;;;;;;31.45;15.32;;;;;;;6.14;50.13;94057.59;4960597;28;20045;-77
2022/02/02 08:32:52;;;;;;;27.20;13.68;;;;;;;6.23;49.42;94066.63;4985992;28;20030;-77
2022/02/02 08:35:22;;;;;;;44.05;20.13;;;;;;;6.28;52.29;94069.31;4979053;28;20045;-77
2022/02/02 08:37:53;;;;;;;32.10;17.60;;;;;;;6.33;51.71;94062.44;4953662;28;20026;-76
2022/02/02 08:40:27;;;;;;;40.75;19.90;;;;;;;6.49;52.27;94068.75;4962106;28;20062;-77
2022/02/02 08:42:54;;;;;;;45.08;18.38;;;;;;;6.57;50.57;94063.25;4960659;28;20045;-77
2022/02/02 08:45:24;;;;;;;25.33;15.02;;;;;;;6.37;49.30;94062.03;4961012;28;20034;-77
2022/02/02 08:47:57;;;;;;;35.22;17.20;;;;;;;6.27;48.31;94057.41;4961257;28;20149;-77
2022/02/02 08:50:43;;;;;;;34.08;18.45;;;;;;;6.14;48.58;94055.81;4977479;28;20114;-82
2022/02/02 08:53:27;;;;;;;33.55;19.55;;;;;;;6.05;50.67;94056.38;4970364;28;20114;-77
2022/02/02 08:58:38;;;;;;;32.00;16.60;;;;;;;6.15;48.10;94051.44;4961437;28;20521;-78
2022/02/02 09:01:08;;;;;;;32.58;17.52;;;;;;;6.21;47.77;94047.97;4979508;28;20042;-77
2022/02/02 09:06:18;;;;;;;30.20;17.00;;;;;;;6.10;47.40;94046.16;4979897;28;20102;-77
2022/02/02 09:08:46;;;;;;;36.33;17.60;;;;;;;6.22;47.24;94045.19;4966322;28;20046;-77
2022/02/02 09:24:48;;;;;;;28.63;14.43;;;;;;;6.46;46.60;94060.66;4973707;28;20527;-77
2022/02/02 09:34:51;;;;;;;32.63;18.58;;;;;;;6.84;45.24;94061.00;4981822;28;20117;-77
2022/02/02 09:37:17;;;;;;;43.75;21.00;;;;;;;6.77;45.62;94056.97;4960775;28;20093;-77
2022/02/02 09:39:49;;;;;;;38.45;19.98;;;;;;;6.88;45.54;94061.34;4980702;28;20478;-77
2022/02/02 09:42:18;;;;;;;31.58;17.55;;;;;;;6.81;44.60;94058.84;4969448;28;20144;-77
2022/02/02 09:44:44;;;;;;;42.75;21.55;;;;;;;6.72;44.77;94054.28;4975390;28;20042;-77
2022/02/02 09:49:58;;;;;;;31.38;15.32;;;;;;;6.55;45.07;94049.78;4967837;28;20113;-78
2022/02/02 09:52:27;;;;;;;31.92;14.27;;;;;;;6.18;44.93;94045.81;4953594;28;20155;-78
2022/02/02 09:55:15;;;;;;;22.48;13.68;;;;;;;5.92;45.03;94044.44;4975117;28;20031;-78
2022/02/02 10:03:36;;;;;;;24.33;14.18;;;;;;;5.12;47.25;94024.88;4942492;29;20028;-78
2022/02/02 10:06:15;;;;;;;27.83;15.23;;;;;;;4.95;47.99;94029.03;4972394;28;20398;-78
2022/02/02 10:09:16;;;;;;;31.23;16.52;;;;;;;4.94;48.02;94018.94;4975270;28;20033;-77
2022/02/02 10:14:30;;;;;;;33.15;18.83;;;;;;;5.05;48.05;94018.22;4975497;28;20037;-78
2022/02/02 10:16:55;;;;;;;49.45;22.75;;;;;;;5.08;48.46;94017.78;4992218;28;20070;-78
2022/02/02 10:19:23;;;;;;;40.63;20.92;;;;;;;5.12;48.52;94024.88;4972365;28;20042;-78
2022/02/02 10:21:48;;;;;;;37.53;17.92;;;;;;;5.22;48.25;94024.38;4991926;28;20026;-77
2022/02/02 10:24:13;;;;;;;46.80;22.25;;;;;;;5.33;48.01;94028.75;4995022;28;20031;-78
2022/02/02 10:26:49;;;;;;;45.00;20.40;;;;;;;5.34;47.42;94027.75;4954879;28;20159;-78
2022/02/02 10:29:15;;;;;;;73.22;28.67;;;;;;;5.51;49.12;94032.28;4990025;28;20038;-78
2022/02/02 10:31:46;;;;;;;58.65;23.73;;;;;;;5.67;47.75;94029.88;4967356;28;20036;-78
2022/02/02 10:34:16;;;;;;;44.20;21.75;;;;;;;5.79;46.37;94029.91;4967298;28;20038;-78
2022/02/02 10:36:41;;;;;;;46.80;22.98;;;;;;;5.85;46.41;94041.13;4974434;28;20022;-78
2022/02/02 10:39:15;;;;;;;41.85;20.20;;;;;;;5.83;45.73;94035.41;4984483;28;20383;-78
2022/02/02 10:41:52;;;;;;;55.63;28.70;;;;;;;5.92;46.96;94027.19;4998984;28;20026;-78
2022/02/02 10:44:22;;;;;;;43.13;20.10;;;;;;;6.03;46.04;94032.59;4969645;28;20039;-78
2022/02/02 10:51:52;;;;;;;58.95;26.70;;;;;;;6.31;46.47;94030.91;4967316;28;20483;-78
2022/02/02 10:57:08;;;;;;;43.67;21.05;;;;;;;6.54;44.95;94022.38;4983835;28;20045;-78
2022/02/02 11:07:08;;;;;;;55.75;26.33;;;;;;;6.73;44.15;94019.66;4976086;28;20229;-78
2022/02/02 11:09:34;;;;;;;82.25;36.78;;;;;;;6.77;44.53;94016.41;4965977;28;20109;-78
2022/02/02 11:11:59;;;;;;;50.53;24.00;;;;;;;6.87;44.83;94010.66;4966081;28;20038;-78
2022/02/02 11:14:28;;;;;;;30.02;15.75;;;;;;;6.81;44.02;94012.34;4971670;28;20030;-78
2022/02/02 11:17:23;;;;;;;33.60;17.40;;;;;;;6.89;44.50;94016.38;4967210;28;20038;-78
2022/02/02 11:19:52;;;;;;;31.20;16.35;;;;;;;6.78;43.98;94012.00;4967081;28;20129;-77
2022/02/02 11:22:31;;;;;;;40.03;20.40;;;;;;;6.82;44.00;94008.75;4966293;28;20453;-78
2022/02/02 11:25:17;;;;;;;57.72;30.05;;;;;;;6.87;43.94;94006.28;4965629;28;20038;-78
2022/02/02 11:27:44;;;;;;;39.53;20.92;;;;;;;6.72;43.12;93993.06;4952854;28;20046;-78
2022/02/02 11:30:10;;;;;;;43.45;21.73;;;;;;;6.49;44.55;94001.59;4960856;28;20027;-78
2022/02/02 11:32:43;;;;;;;26.65;15.65;;;;;;;6.50;44.00;93995.41;4982771;28;21011;-78
2022/02/02 11:35:38;;;;;;;35.20;16.83;;;;;;;6.38;45.09;93992.09;4982406;28;20126;-78
2022/02/02 11:38:07;;;;;;;38.67;18.63;;;;;;;6.34;44.73;93980.63;4988668;28;20502;-78
2022/02/02 11:40:40;;;;;;;45.15;23.58;;;;;;;6.23;45.50;93984.78;4965899;28;20058;-78
2022/02/02 11:43:16;;;;;;;48.78;25.15;;;;;;;6.33;45.51;93979.03;4970231;28;20030;-79
2022/02/02 11:45:47;;;;;;;54.97;25.15;;;;;;;6.26;45.83;93980.97;4988820;28;20030;-78
2022/02/02 11:48:19;;;;;;;60.30;27.52;;;;;;;6.28;46.32;93982.31;4979648;28;20049;-78
2022/02/02 11:50:51;;;;;;;37.47;17.92;;;;;;;6.32;45.36;93978.25;4964768;28;20107;-78
2022/02/02 11:54:01;;;;;;;45.08;21.60;;;;;;;6.28;46.29;93989.28;4961877;28;20528;-78
2022/02/02 11:56:28;;;;;;;37.03;19.23;;;;;;;6.28;45.27;93973.78;4960232;28;20064;-78
2022/02/02 11:58:54;;;;;;;31.90;18.35;;;;;;;6.19;45.75;93972.56;4977917;28;20035;-77
2022/02/02 12:01:40;;;;;;;24.77;15.05;;;;;;;6.07;45.19;93969.97;4986708;28;20029;-77
2022/02/02 12:04:22;;;;;;;30.00;14.07;;;;;;;6.03;46.54;93968.06;4957623;28;20090;-77
2022/02/02 12:57:37;;;;;;;44.75;21.58;;;;;;;5.49;47.48;93987.91;4967680;28;20109;-78
2022/02/02 13:00:10;;;;;;;41.78;19.88;;;;;;;5.43;47.85;93995.50;4951100;28;20026;-79
2022/02/02 13:02:38;;;;;;;33.03;19.88;;;;;;;5.50;47.62;93989.47;4965553;28;20047;-78
2022/02/02 13:05:04;;;;;;;42.60;24.08;;;;;;;5.50;48.60;93990.25;4963634;28;20035;-78
2022/02/02 13:07:30;;;;;;;42.80;22.90;;;;;;;5.51;48.14;93998.78;4983980;28;20066;-78
2022/02/02 13:09:57;;;;;;;46.35;23.02;;;;;;;5.56;48.06;93989.38;4966995;28;20022;-78
2022/02/02 13:12:28;;;;;;;39.38;22.42;;;;;;;5.55;48.72;93989.63;4969068;28;20051;-78
2022/02/02 13:17:41;;;;;;;28.85;15.43;;;;;;;5.61;47.15;93979.19;4970585;28;20050;-78
2022/02/02 13:20:11;;;;;;;30.73;13.65;;;;;;;5.62;46.62;93978.19;4992075;28;20035;-78
2022/02/02 13:22:38;;;;;;;37.80;19.15;;;;;;;5.66;47.75;93979.31;4982624;28;20050;-78
2022/02/02 13:25:04;;;;;;;44.25;20.90;;;;;;;5.71;47.87;93974.28;4966812;28;20205;-78
2022/02/02 13:27:34;;;;;;;50.13;25.05;;;;;;;5.66;47.83;93978.53;4986167;28;20482;-78
2022/02/02 13:30:05;;;;;;;60.95;30.77;;;;;;;5.66;47.84;93981.09;4951577;28;20038;-78
2022/02/02 13:32:48;;;;;;;40.42;21.15;;;;;;;5.62;48.05;93972.25;4964614;28;20105;-78
2022/02/02 13:35:24;;;;;;;66.50;30.65;;;;;;;5.56;48.43;93973.91;4990777;28;20031;-81
2022/02/02 14:01:54;;;;;;;38.55;19.77;;;;;;;5.58;47.34;93976.28;4965147;28;20042;-78
2022/02/02 14:07:22;;;;;;;28.75;16.60;;;;;;;5.57;47.11;93977.28;4969374;28;20042;-78
2022/02/02 14:31:06;;;;;;;37.35;19.60;;;;;;;5.18;47.88;93966.50;4945127;28;20089;-78
2022/02/02 14:31:45;;;;;;;60.15;29.50;;;;;;;5.18;47.74;93965.72;4953573;28;20140;-77
2022/02/02 14:34:10;;;;;;;56.05;27.83;;;;;;;5.14;48.43;93967.94;4945809;28;20090;-77
2022/02/02 14:36:37;;;;;;;51.83;25.42;;;;;;;5.09;48.23;93975.56;4943288;28;20410;-78
2022/02/02 14:41:43;;;;;;;82.90;45.25;;;;;;;5.13;48.91;93976.69;5110978;23;20050;-78
2022/02/02 14:46:43;;;;;;;124.50;63.80;;;;;;;5.24;50.07;93975.16;4990318;28;20132;-78
2022/02/02 14:51:46;;;;;;;114.40;49.67;;;;;;;5.32;48.68;93977.44;5086205;23;20131;-77
2022/02/02 14:54:30;;;;;;;109.50;56.05;;;;;;;5.34;48.94;93980.56;4983134;28;20042;-77
2022/02/02 15:05:24;;;;;;;128.05;60.80;;;;;;;5.39;48.37;93978.91;5016700;23;20053;-77
2022/02/02 15:31:53;;;;;;;40.83;23.30;;;;;;;4.88;48.78;93999.19;4992968;28;20093;-79
2022/02/02 15:34:27;;;;;;;48.55;23.40;;;;;;;4.91;48.03;93996.19;4975970;28;20038;-79
2022/02/02 15:39:41;;;;;;;64.93;30.42;;;;;;;4.78;49.34;94003.06;5006869;28;20124;-78
2022/02/02 15:58:22;;;;;;;48.63;25.98;;;;;;;4.63;48.86;94028.41;4983537;28;20077;-79
2022/02/02 16:03:16;;;;;;;38.53;19.30;;;;;;;4.51;49.33;94023.16;4978078;28;20049;-78
2022/02/02 16:05:47;;;;;;;44.17;21.40;;;;;;;4.49;49.76;94024.38;4977611;28;20032;-79
2022/02/02 16:08:15;;;;;;;47.45;23.98;;;;;;;4.50;50.34;94026.72;4991420;28;20045;-78
2022/02/02 16:11:05;;;;;;;78.18;36.90;;;;;;;4.49;50.27;94026.94;4974523;28;20030;-79
2022/02/02 16:16:58;;;;;;;120.45;70.13;;;;;;;4.47;50.08;94041.81;5006292;28;20045;-79
2022/02/02 16:40:21;;;;;;;19.98;10.63;;;;;;;3.87;51.06;94060.31;4988514;28;20046;-80
2022/02/02 16:45:31;;;;;;;36.83;17.50;;;;;;;3.72;51.90;94059.03;4988008;28;20149;-80
2022/02/02 16:47:56;;;;;;;44.42;20.70;;;;;;;3.73;51.51;94060.59;4976345;28;20069;-81
2022/02/02 16:50:27;;;;;;;33.92;19.98;;;;;;;3.67;52.91;94072.53;4991074;28;20034;-82
2022/02/02 16:52:56;;;;;;;45.00;24.77;;;;;;;3.67;52.45;94077.66;4976938;28;20077;-82
2022/02/02 16:55:37;;;;;;;28.88;17.50;;;;;;;3.61;53.26;94063.84;4975756;28;20143;-80
2022/02/02 17:32:37;;;;;;;62.83;25.20;;;;;;;3.81;51.07;94089.44;4984268;28;20049;-76
2022/02/02 17:35:28;;;;;;;53.50;22.52;;;;;;;3.85;50.79;94102.66;4983713;28;20077;-76
2022/02/02 17:43:26;;;;;;;36.92;19.33;;;;;;;3.75;50.69;94099.78;5001833;28;20057;-75
2022/02/02 18:12:56;;;;;;;35.08;16.73;;;;;;;3.50;51.14;94121.06;5001432;28;20033;-75
2022/02/02 18:20:37;;;;;;;26.45;13.05;;;;;;;3.43;50.99;94142.66;4968205;28;20490;-75
2022/02/02 18:23:18;;;;;;;39.45;21.58;;;;;;;3.46;51.67;94137.09;4972523;28;20587;-76
2022/02/02 18:30:51;;;;;;;19.77;11.80;;;;;;;3.40;52.10;94148.97;5000915;28;20038;-76
2022/02/02 20:04:18;;;;;;;38.63;19.75;;;;;;;2.78;58.57;94229.13;4991945;28;20072;-76
2022/02/02 20:11:43;;;;;;;53.50;24.88;;;;;;;2.96;58.36;94235.25;4967043;28;20040;-77
2022/02/02 20:14:09;;;;;;;60.22;26.45;;;;;;;3.05;58.40;94227.31;4982319;28;20042;-76
2022/02/02 20:16:34;;;;;;;39.83;18.85;;;;;;;3.05;57.72;94222.97;4979580;28;20038;-80
2022/02/02 20:19:04;;;;;;;53.42;22.70;;;;;;;3.01;58.19;94226.94;4966644;28;20644;-76
2022/02/02 20:21:33;;;;;;;44.30;19.88;;;;;;;2.99;58.40;94224.56;4981471;28;20037;-79
2022/02/02 20:24:01;;;;;;;30.20;16.02;;;;;;;2.98;57.95;94219.63;4998764;28;20043;-76
2022/02/02 20:26:29;;;;;;;40.95;17.77;;;;;;;2.97;58.64;94226.53;4966901;28;20516;-76
2022/02/02 20:28:55;;;;;;;33.45;17.73;;;;;;;2.97;58.46;94225.75;4982043;28;20033;-76
2022/02/02 20:31:20;;;;;;;40.78;20.90;;;;;;;3.02;58.36;94223.38;4948324;28;20551;-77
2022/02/02 20:33:46;;;;;;;41.15;19.50;;;;;;;3.00;58.01;94231.28;4997167;28;20029;-76
2022/02/02 20:36:11;;;;;;;37.13;18.77;;;;;;;3.03;58.20;94219.03;4999428;28;20671;-76
2022/02/02 20:38:37;;;;;;;25.08;14.38;;;;;;;3.04;58.32;94226.53;4982154;28;20124;-76
2022/02/02 20:41:02;;;;;;;34.72;15.45;;;;;;;3.03;58.56;94226.72;4966395;28;20520;-76
2022/02/02 20:43:49;;;;;;;31.23;15.50;;;;;;;2.95;58.54;94225.16;4981526;28;20053;-76
2022/02/02 21:10:39;;;;;;;32.30;17.52;;;;;;;2.88;58.25;94227.72;5002144;28;20088;-76
2022/02/02 21:16:06;;;;;;;26.85;15.15;;;;;;;2.81;58.29;94232.09;4942643;29;20051;-77
2022/02/02 21:18:34;;;;;;;41.33;21.00;;;;;;;2.77;58.25;94230.13;4989484;28;20053;-77
2022/02/02 21:21:05;;;;;;;26.48;14.80;;;;;;;2.72;58.42;94235.81;4968883;28;20061;-77
2022/02/02 21:26:32;;;;;;;49.58;19.48;;;;;;;2.69;58.06;94239.56;4972451;28;20152;-77
2022/02/02 21:28:57;;;;;;;54.90;24.13;;;;;;;2.73;58.32;94245.09;4987509;28;20041;-77
2022/02/02 21:31:23;;;;;;;37.70;19.23;;;;;;;2.71;58.17;94247.06;4984327;28;20339;-76
2022/02/02 21:33:49;;;;;;;44.53;19.10;;;;;;;2.68;58.24;94242.34;4968726;28;20046;-77
2022/02/02 21:36:16;;;;;;;37.25;17.48;;;;;;;2.68;57.80;94238.00;5001754;28;20029;-77
2022/02/02 21:38:58;;;;;;;32.00;17.25;;;;;;;2.71;57.70;94241.94;4968250;28;20524;-77
2022/02/02 21:41:31;;;;;;;35.40;19.17;;;;;;;2.71;58.30;94252.22;4973509;28;20034;-77
2022/02/02 21:43:57;;;;;;;44.30;21.15;;;;;;;2.70;58.45;94246.28;4977457;28;20048;-77
2022/02/02 21:46:24;;;;;;;38.40;19.88;;;;;;;2.68;58.09;94248.25;5001363;28;20034;-76
2022/02/02 21:48:50;;;;;;;36.40;17.88;;;;;;;2.71;58.40;94252.22;5001956;28;20593;-76
2022/02/02 21:51:25;;;;;;;31.63;15.30;;;;;;;2.68;58.21;94248.25;4968497;28;20478;-77
2022/02/02 21:53:51;;;;;;;24.73;14.20;;;;;;;2.72;58.06;94248.66;4985522;28;20441;-77
2022/02/02 21:56:16;;;;;;;24.60;15.88;;;;;;;2.70;58.32;94240.38;4952316;28;20049;-77
2022/02/02 21:58:41;;;;;;;22.85;15.95;;;;;;;2.69;57.87;94249.84;4965896;28;20034;-77
2022/02/02 22:01:07;;;;;;;34.08;17.17;;;;;;;2.64;57.95;94246.28;4999834;28;20046;-76
2022/02/02 22:03:33;;;;;;;24.55;15.35;;;;;;;2.67;58.24;94246.69;5000061;28;20053;-76
2022/02/02 22:05:58;;;;;;;24.15;14.45;;;;;;;2.65;58.33;94248.66;4950396;28;20034;-76
2022/02/02 22:08:24;;;;;;;21.95;14.20;;;;;;;2.72;58.23;94253.78;4999354;28;20026;-76
2022/02/02 22:10:49;;;;;;;22.50;11.10;;;;;;;2.78;58.19;94263.28;4968549;28;20093;-76
2022/02/02 22:13:16;;;;;;;24.48;13.40;;;;;;;2.76;58.22;94260.09;4982927;28;20033;-76
2022/02/02 22:15:50;;;;;;;24.83;13.77;;;;;;;2.72;58.47;94262.28;4968109;28;20037;-76
2022/02/02 22:18:17;;;;;;;23.17;13.93;;;;;;;2.74;58.38;94256.94;4985725;28;20053;-75
2022/02/02 22:20:44;;;;;;;18.15;12.43;;;;;;;2.74;58.24;94256.94;4968327;28;20482;-76
2022/02/02 22:23:09;;;;;;;18.63;11.77;;;;;;;2.74;58.46;94256.16;4984252;28;20128;-76
2022/02/02 22:25:34;;;;;;;21.77;12.88;;;;;;;2.76;58.90;94265.25;4967412;28;20480;-76
2022/02/02 22:28:00;;;;;;;20.23;11.73;;;;;;;2.79;58.82;94270.00;4984279;28;20034;-76
2022/02/02 22:30:25;;;;;;;22.40;13.70;;;;;;;2.74;58.52;94277.47;5001269;28;20397;-76
2022/02/02 22:32:51;;;;;;;27.58;14.55;;;;;;;2.76;58.78;94270.38;4984280;28;20702;-76
2022/02/02 22:35:16;;;;;;;31.65;14.82;;;;;;;2.78;58.86;94271.00;4983645;28;20093;-76
2022/02/02 22:37:42;;;;;;;32.78;15.90;;;;;;;2.80;58.71;94271.59;4983542;28;20273;-76
2022/02/02 22:40:08;;;;;;;42.20;18.55;;;;;;;2.84;58.83;94271.97;4984049;28;20052;-76
2022/02/02 22:42:34;;;;;;;36.05;18.25;;;;;;;2.80;58.64;94276.72;4982173;28;20100;-77
2022/02/02 22:45:03;;;;;;;28.50;14.60;;;;;;;2.82;58.95;94279.88;5000060;28;20026;-76
2022/02/02 22:47:30;;;;;;;18.40;12.27;;;;;;;2.86;59.22;94268.22;4999819;28;20050;-76
2022/02/02 22:49:56;;;;;;;16.00;9.73;;;;;;;2.92;59.54;94274.34;4983861;28;20034;-76
2022/02/02 22:52:21;;;;;;;22.58;13.02;;;;;;;2.93;60.14;94279.28;4983383;28;20044;-76
2022/02/02 22:54:47;;;;;;;29.10;14.40;;;;;;;2.95;59.67;94279.88;4983410;28;20038;-76
2022/02/02 22:57:12;;;;;;;20.85;11.73;;;;;;;2.94;60.31;94280.09;4967408;28;20493;-76
2022/02/02 22:59:41;;;;;;;21.85;12.20;;;;;;;2.96;59.86;94284.03;4983324;28;20477;-76
2022/02/02 23:02:26;;;;;;;17.45;10.73;;;;;;;2.98;60.36;94273.56;4967548;28;20045;-76
2022/02/02 23:04:52;;;;;;;19.38;10.65;;;;;;;2.93;60.70;94276.72;4955975;28;20030;-76
2022/02/02 23:07:17;;;;;;;18.90;11.25;;;;;;;3.03;60.57;94267.81;4963910;28;20033;-75
2022/02/02 23:09:44;;;;;;;22.02;12.60;;;;;;;2.97;60.35;94262.50;4978671;28;20519;-76
2022/02/02 23:12:10;;;;;;;20.00;11.98;;;;;;;2.96;61.40;94268.63;4980969;28;20034;-76
2022/02/02 23:14:39;;;;;;;19.48;12.15;;;;;;;2.94;61.01;94265.47;4980643;28;20091;-76